createdAt,value
2023-02-03T00:02:04.936Z,100866.19
2023-02-03T00:04:31.355Z,100867.38
2023-02-03T00:06:57.762Z,100866.59
2023-02-03T00:09:24.128Z,100862.19
2023-02-03T00:11:50.592Z,100850.69
2023-02-03T00:14:17.041Z,100859.06
2023-02-03T00:16:43.459Z,100846.34
2023-02-03T00:19:09.963Z,100849.13
2023-02-03T00:21:36.346Z,100859.84
2023-02-03T00:24:02.724Z,100857.47
2023-02-03T00:26:29.107Z,100867.75
2023-02-03T00:28:55.475Z,100853.84
2023-02-03T00:31:22.052Z,100855.03
2023-02-03T00:33:48.554Z,100859.00
2023-02-03T00:36:15.811Z,100858.22
2023-02-03T00:38:42.191Z,100860.63
2023-02-03T00:41:08.607Z,100865.78
2023-02-03T00:43:34.998Z,100867.75
2023-02-03T00:46:01.497Z,100874.13
2023-02-03T00:48:27.928Z,100872.91
2023-02-03T00:50:54.304Z,100874.91
2023-02-03T00:53:20.678Z,100883.22
2023-02-03T00:55:47.048Z,100889.16
2023-02-03T00:58:13.412Z,100889.19
2023-02-03T01:00:39.785Z,100880.84
2023-02-03T01:03:06.189Z,100884.84
2023-02-03T01:05:32.593Z,100882.84
2023-02-03T01:07:58.942Z,100889.53
2023-02-03T01:10:25.593Z,100885.97
2023-02-03T01:12:52.129Z,100882.44
2023-02-03T01:15:18.604Z,100890.31
2023-02-03T01:17:44.959Z,100889.16
2023-02-03T01:20:11.345Z,100893.97
2023-02-03T01:22:37.702Z,100891.16
2023-02-03T01:25:04.125Z,100891.16
2023-02-03T01:27:30.502Z,100887.16
2023-02-03T01:29:56.884Z,100893.09
2023-02-03T01:32:23.309Z,100889.13
2023-02-03T01:34:49.647Z,100886.34
2023-02-03T01:37:15.990Z,100889.97
2023-02-03T01:39:42.374Z,100888.38
2023-02-03T01:42:11.532Z,100895.88
2023-02-03T01:44:40.756Z,100886.38
2023-02-03T01:47:07.159Z,100887.97
2023-02-03T01:49:33.503Z,100878.44
2023-02-03T01:51:59.889Z,100878.41
2023-02-03T01:54:26.237Z,100874.88
2023-02-03T01:56:55.417Z,100877.28
2023-02-03T01:59:21.787Z,100878.03
2023-02-03T02:01:48.230Z,100871.69
2023-02-03T02:04:14.613Z,100872.09
2023-02-03T02:06:40.986Z,100876.81
2023-02-03T02:09:07.403Z,100872.06
2023-02-03T02:11:36.594Z,100877.63
2023-02-03T02:14:05.776Z,100868.94
2023-02-03T02:16:34.926Z,100864.94
2023-02-03T02:19:01.357Z,100860.97
2023-02-03T02:21:30.507Z,100858.97
2023-02-03T02:23:56.849Z,100857.34
2023-02-03T02:26:26.010Z,100848.66
2023-02-03T02:28:55.146Z,100848.66
2023-02-03T02:31:21.592Z,100857.41
2023-02-03T02:33:50.783Z,100851.81
2023-02-03T02:36:17.156Z,100851.41
2023-02-03T02:38:43.476Z,100847.06
2023-02-03T02:41:09.859Z,100835.97
2023-02-03T02:43:38.995Z,100839.53
2023-02-03T02:46:05.387Z,100837.91
2023-02-03T02:48:34.551Z,100833.16
2023-02-03T02:51:03.682Z,100839.91
2023-02-03T02:53:32.840Z,100841.50
2023-02-03T02:55:59.167Z,100849.84
2023-02-03T02:58:28.329Z,100841.88
2023-02-03T03:00:57.477Z,100844.28
2023-02-03T03:03:26.687Z,100830.41
2023-02-03T03:05:55.833Z,100841.91
2023-02-03T03:08:24.989Z,100841.88
2023-02-03T03:10:54.147Z,100841.13
2023-02-03T03:13:20.509Z,100843.88
2023-02-03T03:15:46.960Z,100839.13
2023-02-03T03:18:13.342Z,100843.06
2023-02-03T03:20:39.674Z,100843.44
2023-02-03T03:23:06.021Z,100848.25
2023-02-03T03:25:32.374Z,100848.25
2023-02-03T03:28:01.600Z,100843.88
2023-02-03T03:30:30.820Z,100842.66
2023-02-03T03:32:57.146Z,100832.31
2023-02-03T03:35:23.491Z,100839.53
2023-02-03T03:37:52.614Z,100839.13
2023-02-03T03:40:19.016Z,100826.38
2023-02-03T03:42:48.156Z,100825.22
2023-02-03T03:45:14.686Z,100816.50
2023-02-03T03:47:43.835Z,100821.59
2023-02-03T03:50:10.173Z,100817.66
2023-02-03T03:52:39.331Z,100824.81
2023-02-03T03:55:05.669Z,100829.16
2023-02-03T03:57:34.811Z,100827.59
2023-02-03T04:00:03.946Z,100827.59
2023-02-03T04:02:33.229Z,100822.44
2023-02-03T04:05:02.430Z,100823.63
2023-02-03T04:07:28.774Z,100833.53
2023-02-03T04:09:57.911Z,100834.75
2023-02-03T04:12:27.055Z,100827.59
2023-02-03T04:14:56.182Z,100828.75
2023-02-03T04:17:25.529Z,100831.19
2023-02-03T04:19:54.680Z,100838.25
2023-02-03T04:22:21.059Z,100828.31
2023-02-03T04:24:47.402Z,100829.91
2023-02-03T04:27:13.757Z,100825.97
2023-02-03T04:29:42.959Z,100826.78
2023-02-03T04:32:09.340Z,100826.78
2023-02-03T04:34:38.510Z,100826.78
2023-02-03T04:37:04.871Z,100833.16
2023-02-03T04:39:34.014Z,100830.38
2023-02-03T04:42:00.404Z,100832.72
2023-02-03T04:44:26.749Z,100822.84
2023-02-03T04:46:53.165Z,100825.22
2023-02-03T04:49:19.493Z,100829.56
2023-02-03T04:51:45.819Z,100825.59
2023-02-03T04:54:12.202Z,100823.59
2023-02-03T04:56:38.580Z,100822.81
2023-02-03T04:59:05.018Z,100824.00
2023-02-03T05:01:31.365Z,100825.19
2023-02-03T05:03:57.735Z,100812.50
2023-02-03T05:06:26.870Z,100810.13
2023-02-03T05:08:53.203Z,100800.59
2023-02-03T05:11:19.589Z,100804.56
2023-02-03T05:13:45.966Z,100806.94
2023-02-03T05:16:12.409Z,100803.38
2023-02-03T05:18:38.836Z,100804.56
2023-02-03T05:21:05.214Z,100792.63
2023-02-03T05:23:31.621Z,100791.50
2023-02-03T05:25:57.962Z,100797.81
2023-02-03T05:28:24.373Z,100796.25
2023-02-03T05:30:53.572Z,100790.28
2023-02-03T05:33:20.259Z,100786.72
2023-02-03T05:35:46.699Z,100791.50
2023-02-03T05:38:13.069Z,100787.50
2023-02-03T05:40:39.428Z,100783.53
2023-02-03T05:43:05.872Z,100781.56
2023-02-03T05:45:32.245Z,100783.94
2023-02-03T05:47:58.638Z,100779.53
2023-02-03T05:50:25.212Z,100778.38
2023-02-03T05:52:51.727Z,100778.75
2023-02-03T05:55:18.099Z,100777.59
2023-02-03T05:57:44.441Z,100776.38
2023-02-03T06:00:10.868Z,100776.78
2023-02-03T06:02:37.257Z,100782.34
2023-02-03T06:05:03.635Z,100779.56
2023-02-03T06:07:29.991Z,100772.44
2023-02-03T06:09:59.156Z,100771.22
2023-02-03T06:12:28.159Z,100777.97
2023-02-03T06:14:57.457Z,100772.84
2023-02-03T06:17:23.832Z,100769.63
2023-02-03T06:19:50.691Z,100764.84
2023-02-03T06:22:19.825Z,100755.00
2023-02-03T06:24:46.154Z,100750.25
2023-02-03T06:27:12.549Z,100750.66
2023-02-03T06:29:41.690Z,100749.47
2023-02-03T06:32:10.831Z,100760.97
2023-02-03T06:34:37.203Z,100751.44
2023-02-03T06:37:03.595Z,100735.59
2023-02-03T06:39:30.072Z,100734.75
2023-02-03T06:41:57.437Z,100728.44
2023-02-03T06:44:24.808Z,100729.22
2023-02-03T06:46:51.252Z,100725.66
2023-02-03T06:49:17.676Z,100727.28
2023-02-03T06:51:44.934Z,100721.31
2023-02-03T06:54:11.459Z,100708.63
2023-02-03T06:56:40.657Z,100708.63
2023-02-03T06:59:07.243Z,100699.09
2023-02-03T07:01:33.793Z,100698.34
2023-02-03T07:04:00.309Z,100695.94
2023-02-03T07:06:27.610Z,100688.78
2023-02-03T07:08:54.904Z,100687.22
2023-02-03T07:11:24.105Z,100684.00
2023-02-03T07:13:52.401Z,100678.47
2023-02-03T07:16:18.857Z,100677.28
2023-02-03T07:18:47.960Z,100670.56
2023-02-03T07:21:14.834Z,100659.44
2023-02-03T07:23:41.305Z,100659.03
2023-02-03T07:26:10.496Z,100655.84
2023-02-03T07:28:37.039Z,100650.28
2023-02-03T07:31:05.511Z,100653.06
2023-02-03T07:33:32.078Z,100655.47
2023-02-03T07:35:58.913Z,100648.72
2023-02-03T07:38:25.352Z,100639.19
2023-02-03T07:40:51.855Z,100644.34
2023-02-03T07:43:20.302Z,100641.16
2023-02-03T07:45:46.725Z,100627.66
2023-02-03T07:48:16.710Z,100627.28
2023-02-03T07:50:43.116Z,100621.31
2023-02-03T07:53:13.335Z,100613.38
2023-02-03T07:55:41.940Z,100607.03
2023-02-03T07:58:10.475Z,100600.28
2023-02-03T08:00:40.014Z,100593.16
2023-02-03T08:03:08.675Z,100593.94
2023-02-03T08:05:36.009Z,100591.53
2023-02-03T08:08:03.353Z,100592.75
2023-02-03T08:10:30.896Z,100587.19
2023-02-03T08:12:58.406Z,100587.19
2023-02-03T08:15:25.780Z,100584.41
2023-02-03T08:17:52.249Z,100583.22
2023-02-03T08:20:18.770Z,100575.66
2023-02-03T08:22:46.144Z,100568.13
2023-02-03T08:25:14.487Z,100563.75
2023-02-03T08:27:41.099Z,100572.09
2023-02-03T08:30:07.571Z,100560.59
2023-02-03T08:32:34.839Z,100561.38
2023-02-03T08:35:02.116Z,100559.81
2023-02-03T08:37:30.545Z,100557.41
2023-02-03T08:39:57.055Z,100545.91
2023-02-03T08:42:23.562Z,100539.53
2023-02-03T08:44:50.980Z,100534.41
2023-02-03T08:47:17.463Z,100531.59
2023-02-03T08:49:44.061Z,100524.47
2023-02-03T08:52:10.565Z,100521.69
2023-02-03T08:54:37.985Z,100516.91
2023-02-03T08:57:05.438Z,100514.53
2023-02-03T08:59:32.861Z,100514.53
2023-02-03T09:01:59.384Z,100502.22
2023-02-03T09:04:25.936Z,100499.47
2023-02-03T09:06:52.466Z,100496.28
2023-02-03T09:09:18.960Z,100493.91
2023-02-03T09:11:45.523Z,100481.22
2023-02-03T09:14:12.960Z,100480.84
2023-02-03T09:16:39.461Z,100482.78
2023-02-03T09:19:06.032Z,100477.63
2023-02-03T09:21:40.214Z,100477.63
2023-02-03T09:24:09.900Z,100472.06
2023-02-03T09:26:37.334Z,100455.81
2023-02-03T09:29:03.849Z,100458.59
2023-02-03T09:31:31.379Z,100455.81
2023-02-03T09:33:58.885Z,100440.69
2023-02-03T09:36:25.357Z,100437.94
2023-02-03T09:38:52.785Z,100432.38
2023-02-03T09:41:19.275Z,100427.63
2023-02-03T09:43:46.769Z,100418.84
2023-02-03T09:46:14.234Z,100418.84
2023-02-03T09:48:41.647Z,100409.75
2023-02-03T09:51:08.136Z,100411.34
2023-02-03T09:53:35.589Z,100397.84
2023-02-03T09:56:03.022Z,100394.25
2023-02-03T09:58:29.512Z,100383.56
2023-02-03T10:00:56.084Z,100376.38
2023-02-03T10:03:22.601Z,100359.72
2023-02-03T10:05:49.219Z,100363.25
2023-02-03T10:08:15.713Z,100349.78
2023-02-03T10:10:43.113Z,100343.81
2023-02-03T10:13:10.542Z,100347.75
2023-02-03T10:15:37.027Z,100342.19
2023-02-03T10:18:04.459Z,100327.50
2023-02-03T10:20:30.995Z,100324.72
2023-02-03T10:22:57.494Z,100322.41
2023-02-03T10:25:23.978Z,100322.84
2023-02-03T10:27:50.611Z,100314.16
2023-02-03T10:30:17.095Z,100300.75
2023-02-03T10:32:44.482Z,100288.03
2023-02-03T10:35:10.961Z,100284.13
2023-02-03T10:37:37.422Z,100278.16
2023-02-03T10:40:04.813Z,100288.88
2023-02-03T10:42:31.302Z,100271.81
2023-02-03T10:44:58.585Z,100263.50
2023-02-03T10:47:25.928Z,100259.91
2023-02-03T10:49:53.222Z,100242.47
2023-02-03T10:52:20.612Z,100240.13
2023-02-03T10:54:47.948Z,100224.25
2023-02-03T10:57:14.413Z,100225.84
2023-02-03T10:59:41.649Z,100216.38
2023-02-03T11:02:08.940Z,100212.03
2023-02-03T11:04:35.359Z,100193.41
2023-02-03T11:07:02.638Z,100184.28
2023-02-03T11:09:29.113Z,100165.63
2023-02-03T11:11:56.538Z,100160.47
2023-02-03T11:14:23.823Z,100155.72
2023-02-03T11:16:51.136Z,100141.88
2023-02-03T11:19:18.450Z,100129.59
2023-02-03T11:21:45.734Z,100123.66
2023-02-03T11:24:12.194Z,100114.94
2023-02-03T11:26:38.603Z,100107.00
2023-02-03T11:29:07.777Z,100095.91
2023-02-03T11:31:34.325Z,100089.16
2023-02-03T11:34:02.743Z,100075.72
2023-02-03T11:36:30.033Z,100063.84
2023-02-03T11:38:57.265Z,100054.75
2023-02-03T11:41:24.080Z,100050.00
2023-02-03T11:43:50.603Z,100040.09
2023-02-03T11:46:17.049Z,100032.53
2023-02-03T11:48:43.474Z,100031.34
2023-02-03T11:51:10.019Z,100027.00
2023-02-03T11:53:51.218Z,100035.31
2023-02-03T11:56:22.678Z,100021.06
2023-02-03T11:58:51.889Z,100015.91
2023-02-03T12:01:18.290Z,100017.06
2023-02-03T12:03:47.479Z,100011.13
2023-02-03T12:06:13.931Z,100004.41
2023-02-03T12:08:42.210Z,99994.88
2023-02-03T12:11:08.688Z,99994.09
2023-02-03T12:13:35.144Z,99996.09
2023-02-03T12:16:03.521Z,99979.03
2023-02-03T12:18:30.795Z,99979.47
2023-02-03T12:20:57.210Z,99972.69
2023-02-03T12:23:23.913Z,99960.03
2023-02-03T12:25:51.207Z,99958.88
2023-02-03T12:28:32.565Z,99955.34
2023-02-03T12:31:01.801Z,99949.00
2023-02-03T12:33:28.198Z,99944.63
2023-02-03T12:35:54.722Z,99936.31
2023-02-03T12:38:21.109Z,99934.72
2023-02-03T12:40:49.271Z,99920.84
2023-02-03T12:43:15.867Z,99924.84
2023-02-03T12:45:42.294Z,99916.91
2023-02-03T12:48:08.736Z,99904.66
2023-02-03T12:50:35.997Z,99895.91
2023-02-03T12:53:02.354Z,99883.25
2023-02-03T12:55:28.726Z,99872.56
2023-02-03T12:57:55.159Z,99870.97
2023-02-03T13:00:21.535Z,99858.66
2023-02-03T13:02:47.933Z,99840.88
2023-02-03T13:05:15.183Z,99836.13
2023-02-03T13:07:41.606Z,99829.78
2023-02-03T13:10:07.974Z,99814.78
2023-02-03T13:12:35.229Z,99808.84
2023-02-03T13:15:01.553Z,99811.19
2023-02-03T13:17:27.904Z,99796.50
2023-02-03T13:19:54.289Z,99794.59
2023-02-03T13:22:21.510Z,99781.53
2023-02-03T13:24:47.921Z,99768.47
2023-02-03T13:27:14.429Z,99758.16
2023-02-03T13:29:40.793Z,99752.59
2023-02-03T13:32:07.225Z,99743.91
2023-02-03T13:34:35.691Z,99735.19
2023-02-03T13:37:03.110Z,99730.84
2023-02-03T13:39:29.446Z,99715.81
2023-02-03T13:41:55.798Z,99715.44
2023-02-03T13:44:22.146Z,99701.28
2023-02-03T13:46:48.549Z,99692.56
2023-02-03T13:49:14.921Z,99691.75
2023-02-03T13:51:41.250Z,99686.56
2023-02-03T13:54:07.788Z,99681.47
2023-02-03T13:56:34.127Z,99677.50
2023-02-03T13:59:00.502Z,99681.13
2023-02-03T14:01:26.877Z,99678.31
2023-02-03T14:03:53.327Z,99670.00
2023-02-03T14:06:19.726Z,99666.41
2023-02-03T14:08:46.099Z,99655.75
2023-02-03T14:11:12.540Z,99639.94
2023-02-03T14:13:38.892Z,99640.03
2023-02-03T14:16:05.294Z,99636.81
2023-02-03T14:18:31.658Z,99628.56
2023-02-03T14:20:58.037Z,99615.84
2023-02-03T14:23:24.401Z,99615.91
2023-02-03T14:25:50.765Z,99605.19
2023-02-03T14:28:17.247Z,99613.09
2023-02-03T14:30:43.745Z,99607.13
2023-02-03T14:33:10.151Z,99601.63
2023-02-03T14:35:36.466Z,99598.06
2023-02-03T14:38:02.859Z,99589.38
2023-02-03T14:40:29.273Z,99584.25
2023-02-03T14:43:04.828Z,99579.06
2023-02-03T14:45:35.994Z,99579.06
2023-02-03T14:48:02.343Z,99578.72
2023-02-03T14:50:28.688Z,99570.75
2023-02-03T14:52:55.201Z,99572.00
2023-02-03T14:55:21.517Z,99569.19
2023-02-03T14:57:47.866Z,99562.47
2023-02-03T15:00:14.298Z,99561.28
2023-02-03T15:02:40.627Z,99558.97
2023-02-03T15:05:07.100Z,99545.88
2023-02-03T15:07:33.426Z,99542.34
2023-02-03T15:09:59.776Z,99547.84
2023-02-03T15:12:26.103Z,99542.72
2023-02-03T15:14:52.453Z,99539.97
2023-02-03T15:17:18.817Z,99540.78
2023-02-03T15:19:46.071Z,99532.53
2023-02-03T15:22:13.312Z,99526.53
2023-02-03T15:24:39.725Z,99530.47
2023-02-03T15:27:06.069Z,99523.75
2023-02-03T15:29:32.446Z,99518.25
2023-02-03T15:31:58.856Z,99519.03
2023-02-03T15:34:25.276Z,99506.34
2023-02-03T15:36:51.714Z,99505.19
2023-02-03T15:39:18.075Z,99508.31
2023-02-03T15:41:44.476Z,99507.13
2023-02-03T15:44:10.867Z,99501.97
2023-02-03T15:46:37.237Z,99497.19
2023-02-03T15:49:03.722Z,99493.69
2023-02-03T15:51:30.083Z,99485.78
2023-02-03T15:53:56.463Z,99481.44
2023-02-03T15:56:22.839Z,99474.66
2023-02-03T15:58:50.086Z,99471.91
2023-02-03T16:01:18.105Z,99461.72
2023-02-03T16:03:44.632Z,99462.53
2023-02-03T16:06:11.873Z,99462.47
2023-02-03T16:08:38.243Z,99462.88
2023-02-03T16:11:04.629Z,99458.94
2023-02-03T16:13:31.889Z,99460.91
2023-02-03T16:15:58.270Z,99453.38
2023-02-03T16:18:24.646Z,99458.13
2023-02-03T16:20:51.090Z,99447.41
2023-02-03T16:23:17.474Z,99436.34
2023-02-03T16:25:43.806Z,99435.56
2023-02-03T16:28:10.236Z,99436.00
2023-02-03T16:30:36.606Z,99437.91
2023-02-03T16:33:03.016Z,99436.75
2023-02-03T16:35:32.467Z,99428.44
2023-02-03T16:37:58.974Z,99423.28
2023-02-03T16:40:26.207Z,99425.25
2023-02-03T16:42:52.578Z,99419.75
2023-02-03T16:45:19.830Z,99414.56
2023-02-03T16:47:47.104Z,99412.63
2023-02-03T16:50:13.468Z,99409.03
2023-02-03T16:52:42.071Z,99417.78
2023-02-03T16:55:08.464Z,99406.72
2023-02-03T16:57:34.825Z,99404.34
2023-02-03T17:00:04.001Z,99413.84
2023-02-03T17:02:33.214Z,99398.72
2023-02-03T17:04:59.684Z,99410.59
2023-02-03T17:07:27.118Z,99406.22
2023-02-03T17:09:54.381Z,99413.75
2023-02-03T17:12:20.791Z,99415.75
2023-02-03T17:14:47.644Z,99410.63
2023-02-03T17:17:14.072Z,99406.59
2023-02-03T17:19:40.484Z,99410.56
2023-02-03T17:22:06.948Z,99406.63
2023-02-03T17:24:33.329Z,99410.88
2023-02-03T17:26:59.874Z,99406.28
2023-02-03T17:29:29.012Z,99412.56
2023-02-03T17:31:56.242Z,99409.63
2023-02-03T17:34:22.830Z,99411.75
2023-02-03T17:36:49.221Z,99427.63
2023-02-03T17:55:29.459Z,99434.53
2023-02-03T17:57:55.954Z,99428.56
2023-02-03T18:00:22.303Z,99430.06
2023-02-03T18:02:48.676Z,99430.44
2023-02-03T18:05:15.026Z,99432.34
2023-02-03T18:07:41.345Z,99418.47
2023-02-03T18:10:07.678Z,99427.13
2023-02-03T18:12:34.024Z,99432.59
2023-02-03T18:15:00.412Z,99440.50
2023-02-03T18:17:26.764Z,99440.06
2023-02-03T18:19:56.155Z,99451.13
2023-02-03T18:22:22.785Z,99446.44
2023-02-03T18:24:49.129Z,99452.34
2023-02-03T18:27:15.479Z,99457.91
2023-02-03T18:29:41.847Z,99459.09
2023-02-03T18:32:08.249Z,99458.66
2023-02-03T18:34:34.592Z,99461.81
2023-02-03T18:37:00.927Z,99463.38
2023-02-03T18:39:27.280Z,99463.03
2023-02-03T18:41:53.792Z,99471.38
2023-02-03T18:44:20.162Z,99466.53
2023-02-03T18:46:46.542Z,99476.50
2023-02-03T18:49:12.925Z,99479.63
2023-02-03T18:51:39.283Z,99479.50
2023-02-03T18:54:05.823Z,99485.06
2023-02-03T18:56:35.072Z,99486.63
2023-02-03T18:59:01.558Z,99482.56
2023-02-03T19:01:27.958Z,99482.00
2023-02-03T19:03:54.346Z,99487.84
2023-02-03T19:06:21.075Z,99486.41
2023-02-03T19:08:47.427Z,99493.34
2023-02-03T19:11:13.772Z,99492.69
2023-02-03T19:13:40.155Z,99492.03
2023-02-03T19:16:06.582Z,99491.13
2023-02-03T19:18:32.952Z,99497.63
2023-02-03T19:20:59.322Z,99493.22
2023-02-03T19:23:25.962Z,99504.38
2023-02-03T19:25:52.309Z,99490.47
2023-02-03T19:28:29.976Z,99492.81
2023-02-03T19:31:02.922Z,99491.66
2023-02-03T19:33:33.346Z,99495.22
2023-02-03T19:35:59.707Z,99503.44
2023-02-03T19:38:26.123Z,99496.41
2023-02-03T19:40:52.516Z,99493.09
2023-02-03T19:43:18.900Z,99491.09
2023-02-03T19:45:45.547Z,99497.56
2023-02-03T19:48:11.913Z,99503.97
2023-02-03T19:50:38.282Z,99504.19
2023-02-03T19:53:04.678Z,99511.88
2023-02-03T19:55:31.068Z,99514.84
2023-02-03T19:57:57.425Z,99523.72
2023-02-03T20:00:23.771Z,99519.00
2023-02-03T20:02:50.106Z,99525.25
2023-02-03T20:05:17.364Z,99523.25
2023-02-03T20:07:44.703Z,99524.38
2023-02-03T20:10:11.089Z,99531.03
2023-02-03T20:12:37.617Z,99537.91
2023-02-03T20:15:04.039Z,99531.66
2023-02-03T20:17:30.395Z,99530.53
2023-02-03T20:19:56.899Z,99535.66
2023-02-03T20:22:23.214Z,99535.09
2023-02-03T20:24:49.548Z,99535.47
2023-02-03T20:27:15.915Z,99542.72
2023-02-03T20:29:42.297Z,99564.09
2023-02-03T20:32:08.928Z,99574.31
2023-02-03T20:34:35.363Z,99574.31
2023-02-03T20:37:01.737Z,99563.34
2023-02-03T20:39:28.100Z,99570.38
2023-02-03T20:41:54.456Z,99571.97
2023-02-03T20:44:21.723Z,99568.16
2023-02-03T20:46:48.161Z,99574.63
2023-02-03T20:49:15.559Z,99570.72
2023-02-03T20:51:41.902Z,99573.50
2023-02-03T20:54:08.241Z,99574.34
2023-02-03T20:56:34.612Z,99563.34
2023-02-03T20:59:00.980Z,99568.56
2023-02-03T21:01:27.355Z,99569.28
2023-02-03T21:03:55.022Z,99577.19
2023-02-03T21:06:21.405Z,99575.38
2023-02-03T21:08:47.743Z,99589.69
2023-02-03T21:11:14.194Z,99589.75
2023-02-03T21:13:40.582Z,99602.88
2023-02-03T21:16:07.152Z,99610.78
2023-02-03T21:18:33.530Z,99618.34
2023-02-03T21:20:59.937Z,99615.09
2023-02-03T21:23:29.064Z,99616.34
2023-02-03T21:25:55.444Z,99621.97
2023-02-03T21:28:21.785Z,99616.94
2023-02-03T21:30:48.212Z,99623.53
2023-02-03T21:33:14.626Z,99633.41
2023-02-03T21:35:40.964Z,99635.31
2023-02-03T21:38:07.503Z,99637.53
2023-02-03T21:40:33.864Z,99640.28
2023-02-03T21:43:00.217Z,99641.88
2023-02-03T21:45:26.588Z,99643.13
2023-02-03T21:47:52.948Z,99657.84
2023-02-03T21:50:19.603Z,99659.06
2023-02-03T21:52:45.926Z,99661.81
2023-02-03T21:55:12.295Z,99671.34
2023-02-03T21:57:38.649Z,99666.25
2023-02-03T22:00:04.976Z,99668.69
2023-02-03T22:02:31.383Z,99674.19
2023-02-03T22:04:57.777Z,99674.59
2023-02-03T22:07:24.140Z,99677.69
2023-02-03T22:09:50.499Z,99680.44
2023-02-03T22:12:16.859Z,99681.75
2023-02-03T22:14:43.227Z,99679.78
2023-02-03T22:17:09.748Z,99692.16
2023-02-03T22:19:36.151Z,99703.78
2023-02-03T22:22:02.470Z,99711.34
2023-02-03T22:24:28.808Z,99718.09
2023-02-03T22:26:55.257Z,99717.38
2023-02-03T22:29:21.806Z,99724.56
2023-02-03T22:31:48.221Z,99721.38
2023-02-03T22:34:14.627Z,99726.13
2023-02-03T22:36:41.103Z,99723.34
2023-02-03T22:39:07.478Z,99724.88
2023-02-03T22:41:33.820Z,99734.09
2023-02-03T22:44:00.153Z,99730.13
2023-02-03T22:46:26.643Z,99732.84
2023-02-03T22:48:53.218Z,99733.69
2023-02-03T22:51:19.563Z,99730.84
2023-02-03T22:53:45.915Z,99729.75
2023-02-03T22:56:12.577Z,99732.06
2023-02-03T22:58:38.933Z,99742.84
2023-02-03T23:01:05.320Z,99746.47
2023-02-03T23:03:31.780Z,99749.97
2023-02-03T23:05:58.142Z,99750.44
2023-02-03T23:08:24.720Z,99754.78
2023-02-03T23:10:51.081Z,99760.34
2023-02-03T23:13:17.452Z,99760.81
2023-02-03T23:15:43.847Z,99769.50
2023-02-03T23:18:10.268Z,99773.88
2023-02-03T23:20:36.625Z,99791.31
2023-02-03T23:23:02.965Z,99790.22
2023-02-03T23:25:29.329Z,99802.06
2023-02-03T23:27:55.703Z,99815.94
2023-02-03T23:30:22.072Z,99821.13
2023-02-03T23:32:48.404Z,99832.22
2023-02-03T23:35:14.784Z,99833.78
2023-02-03T23:37:41.127Z,99842.97
2023-02-03T23:40:07.462Z,99856.44
2023-02-03T23:42:33.820Z,99852.91
2023-02-03T23:45:00.162Z,99870.00
2023-02-03T23:47:26.612Z,99862.84
2023-02-03T23:49:52.950Z,99865.25
2023-02-03T23:52:19.287Z,99877.50
2023-02-03T23:54:45.654Z,99872.41
2023-02-03T23:57:12.853Z,99877.53
2023-02-03T23:59:39.165Z,99882.28
